sensor_id;sensor_type;location;lat;lon;timestamp;pressure;altitude;pressure_sealevel;temperature;humidity
42945;BME280;28584;42.636;23.294;2022-11-20T00:00:24;162960.38;;;16.53;93.33
42945;BME280;28584;42.636;23.294;2022-11-20T00:02:49;162945.63;;;16.47;96.31
42945;BME280;28584;42.636;23.294;2022-11-20T00:05:15;162930.81;;;16.41;97.36
42945;BME280;28584;42.636;23.294;2022-11-20T00:07:40;162940.22;;;16.45;96.34
42945;BME280;28584;42.636;23.294;2022-11-20T00:10:06;162952.31;;;16.50;96.46
42945;BME280;28584;42.636;23.294;2022-11-20T00:12:31;162957.72;;;16.52;95.92
42945;BME280;28584;42.636;23.294;2022-11-20T00:14:57;162979.16;;;16.60;93.94
42945;BME280;28584;42.636;23.294;2022-11-20T00:17:22;162959.00;;;16.52;94.69
42945;BME280;28584;42.636;23.294;2022-11-20T00:19:48;162975.13;;;16.58;93.11
42945;BME280;28584;42.636;23.294;2022-11-20T00:22:13;162963.03;;;16.54;95.73
42945;BME280;28584;42.636;23.294;2022-11-20T00:24:39;162971.09;;;16.57;95.15
42945;BME280;28584;42.636;23.294;2022-11-20T00:27:04;163006.00;;;16.70;90.08
42945;BME280;28584;42.636;23.294;2022-11-20T00:29:29;163001.97;;;16.68;89.96
42945;BME280;28584;42.636;23.294;2022-11-20T00:31:55;163007.31;;;16.70;90.42
42945;BME280;28584;42.636;23.294;2022-11-20T00:34:20;162987.22;;;16.63;91.28
42945;BME280;28584;42.636;23.294;2022-11-20T00:36:46;163008.69;;;16.71;89.19
42945;BME280;28584;42.636;23.294;2022-11-20T00:39:11;163014.06;;;16.73;88.19
42945;BME280;28584;42.636;23.294;2022-11-20T00:41:36;163000.63;;;16.68;90.32
42945;BME280;28584;42.636;23.294;2022-11-20T00:44:02;163023.44;;;16.76;86.73
42945;BME280;28584;42.636;23.294;2022-11-20T00:46:27;163038.19;;;16.82;84.38
42945;BME280;28584;42.636;23.294;2022-11-20T00:48:53;162995.28;;;16.66;88.58
42945;BME280;28584;42.636;23.294;2022-11-20T00:51:21;163006.00;;;16.70;85.69
42945;BME280;28584;42.636;23.294;2022-11-20T00:53:47;163011.34;;;16.72;87.22
42945;BME280;28584;42.636;23.294;2022-11-20T00:56:15;162984.50;;;16.62;90.18
42945;BME280;28584;42.636;23.294;2022-11-20T00:58:43;162959.00;;;16.52;90.78
42945;BME280;28584;42.636;23.294;2022-11-20T01:01:12;162993.91;;;16.65;87.91
42945;BME280;28584;42.636;23.294;2022-11-20T01:03:40;162992.56;;;16.65;88.81
42945;BME280;28584;42.636;23.294;2022-11-20T01:06:14;162997.94;;;16.67;88.10
42945;BME280;28584;42.636;23.294;2022-11-20T01:08:40;163010.03;;;16.71;86.71
42945;BME280;28584;42.636;23.294;2022-11-20T01:11:09;163003.28;;;16.69;86.92
42945;BME280;28584;42.636;23.294;2022-11-20T01:13:35;162983.19;;;16.61;88.91
42945;BME280;28584;42.636;23.294;2022-11-20T01:18:30;162964.41;;;16.54;89.23
42945;BME280;28584;42.636;23.294;2022-11-20T01:20:55;162950.97;;;16.49;89.69
42945;BME280;28584;42.636;23.294;2022-11-20T01:23:20;162973.78;;;16.58;87.88
42945;BME280;28584;42.636;23.294;2022-11-20T01:25:46;162979.16;;;16.60;86.89
42945;BME280;28584;42.636;23.294;2022-11-20T01:28:11;162997.94;;;16.67;87.04
42945;BME280;28584;42.636;23.294;2022-11-20T01:30:36;163003.28;;;16.69;86.83
42945;BME280;28584;42.636;23.294;2022-11-20T01:33:02;162995.28;;;16.66;86.25
42945;BME280;28584;42.636;23.294;2022-11-20T01:35:27;162954.97;;;16.51;89.67
42945;BME280;28584;42.636;23.294;2022-11-20T01:37:52;162929.44;;;16.41;89.76
42945;BME280;28584;42.636;23.294;2022-11-20T01:40:18;162964.41;;;16.54;87.55
42945;BME280;28584;42.636;23.294;2022-11-20T01:43:01;162965.72;;;16.55;87.64
42945;BME280;28584;42.636;23.294;2022-11-20T01:48:22;162940.22;;;16.45;87.25
42945;BME280;28584;42.636;23.294;2022-11-20T01:50:49;162928.09;;;16.40;88.26
42945;BME280;28584;42.636;23.294;2022-11-20T01:53:18;162949.66;;;16.49;85.34
42945;BME280;28584;42.636;23.294;2022-11-20T01:55:52;162977.81;;;16.59;83.34
42945;BME280;28584;42.636;23.294;2022-11-20T01:58:25;162979.16;;;16.60;82.20
42945;BME280;28584;42.636;23.294;2022-11-20T02:00:52;162984.50;;;16.62;81.70
42945;BME280;28584;42.636;23.294;2022-11-20T02:03:18;162993.91;;;16.65;80.19
42945;BME280;28584;42.636;23.294;2022-11-20T02:05:51;162945.63;;;16.47;82.84
42945;BME280;28584;42.636;23.294;2022-11-20T02:08:21;162921.41;;;16.38;83.77
42945;BME280;28584;42.636;23.294;2022-11-20T02:10:47;162903.97;;;16.31;85.62
42945;BME280;28584;42.636;23.294;2022-11-20T02:13:12;162909.31;;;16.33;84.58
42945;BME280;28584;42.636;23.294;2022-11-20T02:15:56;162920.03;;;16.37;83.82
42945;BME280;28584;42.636;23.294;2022-11-20T02:18:23;162936.19;;;16.43;82.38
42945;BME280;28584;42.636;23.294;2022-11-20T02:20:54;162937.56;;;16.44;83.04
42945;BME280;28584;42.636;23.294;2022-11-20T02:26:28;162948.28;;;16.48;82.90
42945;BME280;28584;42.636;23.294;2022-11-20T02:28:54;162914.69;;;16.35;85.88
42945;BME280;28584;42.636;23.294;2022-11-20T02:31:20;162914.69;;;16.35;85.29
42945;BME280;28584;42.636;23.294;2022-11-20T02:33:45;162920.03;;;16.37;84.97
42945;BME280;28584;42.636;23.294;2022-11-20T02:36:14;162890.53;;;16.26;89.32
42945;BME280;28584;42.636;23.294;2022-11-20T02:38:41;162894.56;;;16.28;87.60
42945;BME280;28584;42.636;23.294;2022-11-20T02:41:08;162874.47;;;16.20;90.05
42945;BME280;28584;42.636;23.294;2022-11-20T02:43:33;162938.88;;;16.44;87.32
42945;BME280;28584;42.636;23.294;2022-11-20T02:45:59;162913.34;;;16.35;88.90
42945;BME280;28584;42.636;23.294;2022-11-20T02:48:24;162881.16;;;16.23;93.76
42945;BME280;28584;42.636;23.294;2022-11-20T02:50:49;162906.66;;;16.32;93.92
42945;BME280;28584;42.636;23.294;2022-11-20T02:53:15;162885.19;;;16.24;95.98
42945;BME280;28584;42.636;23.294;2022-11-20T02:55:40;162870.44;;;16.19;97.16
42945;BME280;28584;42.636;23.294;2022-11-20T02:58:05;162855.69;;;16.13;99.32
42945;BME280;28584;42.636;23.294;2022-11-20T03:00:31;162851.66;;;16.12;100.00
42945;BME280;28584;42.636;23.294;2022-11-20T03:02:57;162826.13;;;16.02;100.00
42945;BME280;28584;42.636;23.294;2022-11-20T03:05:22;162826.13;;;16.02;100.00
42945;BME280;28584;42.636;23.294;2022-11-20T03:07:48;162820.78;;;16.00;100.00
42945;BME280;28584;42.636;23.294;2022-11-20T03:10:13;162796.63;;;15.91;100.00
42945;BME280;28584;42.636;23.294;2022-11-20T03:12:38;162800.66;;;15.93;100.00
42945;BME280;28584;42.636;23.294;2022-11-20T03:15:04;162810.06;;;15.96;100.00
42945;BME280;28584;42.636;23.294;2022-11-20T03:17:30;162840.88;;;16.08;100.00
42945;BME280;28584;42.636;23.294;2022-11-20T03:19:56;162806.03;;;15.95;100.00
42945;BME280;28584;42.636;23.294;2022-11-20T03:22:21;162792.59;;;15.90;100.00
42945;BME280;28584;42.636;23.294;2022-11-20T03:24:47;162771.16;;;15.82;100.00
42945;BME280;28584;42.636;23.294;2022-11-20T03:27:12;162785.91;;;15.87;100.00
42945;BME280;28584;42.636;23.294;2022-11-20T03:29:37;162769.81;;;15.81;100.00
42945;BME280;28584;42.636;23.294;2022-11-20T03:32:03;162726.91;;;15.65;100.00
42945;BME280;28584;42.636;23.294;2022-11-20T03:34:28;162742.97;;;15.71;100.00
42945;BME280;28584;42.636;23.294;2022-11-20T03:36:54;162765.78;;;15.80;100.00
42945;BME280;28584;42.636;23.294;2022-11-20T03:39:19;162757.72;;;15.77;100.00
42945;BME280;28584;42.636;23.294;2022-11-20T03:41:44;162748.34;;;15.73;100.00
42945;BME280;28584;42.636;23.294;2022-11-20T03:44:11;162784.53;;;15.87;100.00
42945;BME280;28584;42.636;23.294;2022-11-20T03:46:37;162777.84;;;15.84;100.00
42945;BME280;28584;42.636;23.294;2022-11-20T03:49:03;162785.91;;;15.87;100.00
42945;BME280;28584;42.636;23.294;2022-11-20T03:51:31;162791.28;;;15.89;100.00
42945;BME280;28584;42.636;23.294;2022-11-20T03:54:00;162785.91;;;15.87;100.00
42945;BME280;28584;42.636;23.294;2022-11-20T03:56:29;162732.25;;;15.67;100.00
42945;BME280;28584;42.636;23.294;2022-11-20T03:58:55;162708.13;;;15.58;100.00
42945;BME280;28584;42.636;23.294;2022-11-20T04:01:24;162702.75;;;15.56;100.00
42945;BME280;28584;42.636;23.294;2022-11-20T04:03:52;162697.38;;;15.54;100.00
42945;BME280;28584;42.636;23.294;2022-11-20T04:06:25;162689.38;;;15.51;100.00
42945;BME280;28584;42.636;23.294;2022-11-20T04:08:54;162674.63;;;15.46;100.00
42945;BME280;28584;42.636;23.294;2022-11-20T04:11:22;162675.94;;;15.46;100.00
42945;BME280;28584;42.636;23.294;2022-11-20T04:13:51;162694.69;;;15.53;100.00
42945;BME280;28584;42.636;23.294;2022-11-20T04:16:17;162724.19;;;15.64;100.00
42945;BME280;28584;42.636;23.294;2022-11-20T04:18:43;162721.53;;;15.63;100.00
42945;BME280;28584;42.636;23.294;2022-11-20T04:21:09;162710.81;;;15.59;100.00
42945;BME280;28584;42.636;23.294;2022-11-20T04:23:34;162713.47;;;15.60;100.00
42945;BME280;28584;42.636;23.294;2022-11-20T04:26:02;162702.75;;;15.56;100.00
42945;BME280;28584;42.636;23.294;2022-11-20T04:28:28;162678.59;;;15.47;100.00
42945;BME280;28584;42.636;23.294;2022-11-20T04:30:53;162670.59;;;15.44;100.00
42945;BME280;28584;42.636;23.294;2022-11-20T04:33:18;162688.00;;;15.51;100.00
42945;BME280;28584;42.636;23.294;2022-11-20T04:35:45;162681.31;;;15.48;100.00
42945;BME280;28584;42.636;23.294;2022-11-20T04:38:12;162678.59;;;15.47;100.00
42945;BME280;28584;42.636;23.294;2022-11-20T04:40:37;162670.59;;;15.44;100.00
42945;BME280;28584;42.636;23.294;2022-11-20T04:43:03;162649.13;;;15.36;100.00
42945;BME280;28584;42.636;23.294;2022-11-20T04:45:28;162654.50;;;15.38;100.00
42945;BME280;28584;42.636;23.294;2022-11-20T04:47:54;162651.81;;;15.37;100.00
42945;BME280;28584;42.636;23.294;2022-11-20T04:50:19;162646.41;;;15.35;100.00
42945;BME280;28584;42.636;23.294;2022-11-20T04:52:44;162654.50;;;15.38;100.00
42945;BME280;28584;42.636;23.294;2022-11-20T04:55:10;162700.09;;;15.55;100.00
42945;BME280;28584;42.636;23.294;2022-11-20T04:57:35;162684.00;;;15.49;100.00
42945;BME280;28584;42.636;23.294;2022-11-20T05:00:00;162665.22;;;15.42;100.00
42945;BME280;28584;42.636;23.294;2022-11-20T05:02:26;162638.34;;;15.32;100.00
42945;BME280;28584;42.636;23.294;2022-11-20T05:04:51;162630.28;;;15.29;100.00
42945;BME280;28584;42.636;23.294;2022-11-20T05:07:16;162620.94;;;15.26;100.00
42945;BME280;28584;42.636;23.294;2022-11-20T05:09:42;162600.81;;;15.18;100.00
42945;BME280;28584;42.636;23.294;2022-11-20T05:12:08;162627.63;;;15.28;100.00
42945;BME280;28584;42.636;23.294;2022-11-20T05:14:34;162627.63;;;15.28;100.00
42945;BME280;28584;42.636;23.294;2022-11-20T05:16:59;162608.84;;;15.21;100.00
42945;BME280;28584;42.636;23.294;2022-11-20T05:19:25;162616.91;;;15.24;100.00
42945;BME280;28584;42.636;23.294;2022-11-20T05:21:50;162631.66;;;15.30;100.00
42945;BME280;28584;42.636;23.294;2022-11-20T05:24:15;162624.97;;;15.27;100.00
42945;BME280;28584;42.636;23.294;2022-11-20T05:26:41;162600.81;;;15.18;100.00
42945;BME280;28584;42.636;23.294;2022-11-20T05:29:06;162580.69;;;15.11;100.00
42945;BME280;28584;42.636;23.294;2022-11-20T05:31:32;162606.19;;;15.20;100.00
42945;BME280;28584;42.636;23.294;2022-11-20T05:33:57;162616.91;;;15.24;100.00
42945;BME280;28584;42.636;23.294;2022-11-20T05:36:23;162612.88;;;15.23;100.00
42945;BME280;28584;42.636;23.294;2022-11-20T05:38:49;162623.59;;;15.27;100.00
42945;BME280;28584;42.636;23.294;2022-11-20T05:41:17;162618.22;;;15.25;100.00
42945;BME280;28584;42.636;23.294;2022-11-20T05:43:45;162620.94;;;15.26;100.00
42945;BME280;28584;42.636;23.294;2022-11-20T05:46:13;162611.53;;;15.22;100.00
42945;BME280;28584;42.636;23.294;2022-11-20T05:48:40;162661.19;;;15.41;100.00
42945;BME280;28584;42.636;23.294;2022-11-20T05:51:08;162681.31;;;15.48;100.00
42945;BME280;28584;42.636;23.294;2022-11-20T05:53:35;162684.00;;;15.49;100.00
42945;BME280;28584;42.636;23.294;2022-11-20T05:56:09;162694.69;;;15.53;100.00
42945;BME280;28584;42.636;23.294;2022-11-20T05:58:36;162698.72;;;15.55;100.00
42945;BME280;28584;42.636;23.294;2022-11-20T06:03:36;162702.75;;;15.56;100.00
42945;BME280;28584;42.636;23.294;2022-11-20T06:06:03;162694.69;;;15.53;100.00
42945;BME280;28584;42.636;23.294;2022-11-20T06:08:29;162706.78;;;15.58;100.00
42945;BME280;28584;42.636;23.294;2022-11-20T06:10:54;162670.59;;;15.44;100.00
42945;BME280;28584;42.636;23.294;2022-11-20T06:13:20;162669.25;;;15.44;100.00
42945;BME280;28584;42.636;23.294;2022-11-20T06:15:52;162686.66;;;15.50;100.00
42945;BME280;28584;42.636;23.294;2022-11-20T06:18:18;162700.09;;;15.55;100.00
42945;BME280;28584;42.636;23.294;2022-11-20T06:20:44;162702.75;;;15.56;100.00
42945;BME280;28584;42.636;23.294;2022-11-20T06:23:10;162736.28;;;15.69;100.00
42945;BME280;28584;42.636;23.294;2022-11-20T06:25:40;162780.53;;;15.85;100.00
42945;BME280;28584;42.636;23.294;2022-11-20T06:28:05;162806.03;;;15.95;100.00
42945;BME280;28584;42.636;23.294;2022-11-20T06:30:31;162840.88;;;16.08;100.00
42945;BME280;28584;42.636;23.294;2022-11-20T06:32:56;162905.28;;;16.32;100.00
42945;BME280;28584;42.636;23.294;2022-11-20T06:35:22;162979.16;;;16.60;97.76
42945;BME280;28584;42.636;23.294;2022-11-20T06:37:47;163048.91;;;16.86;90.36
42945;BME280;28584;42.636;23.294;2022-11-20T06:40:12;163169.75;;;17.31;88.28
42945;BME280;28584;42.636;23.294;2022-11-20T06:42:38;163278.59;;;17.71;78.97
42945;BME280;28584;42.636;23.294;2022-11-20T06:45:03;163326.94;;;17.89;70.56
42945;BME280;28584;42.636;23.294;2022-11-20T06:47:29;163384.66;;;18.11;69.02
42945;BME280;28584;42.636;23.294;2022-11-20T06:49:55;163396.78;;;18.15;67.16
42945;BME280;28584;42.636;23.294;2022-11-20T06:52:20;163363.19;;;18.03;68.30
42945;BME280;28584;42.636;23.294;2022-11-20T06:54:46;163438.41;;;18.31;66.12
42945;BME280;28584;42.636;23.294;2022-11-20T06:57:11;163416.94;;;18.23;66.39
42945;BME280;28584;42.636;23.294;2022-11-20T06:59:36;163497.63;;;18.53;65.02
42945;BME280;28584;42.636;23.294;2022-11-20T07:02:02;163472.06;;;18.43;64.64
42945;BME280;28584;42.636;23.294;2022-11-20T07:04:27;163453.25;;;18.36;66.70
42945;BME280;28584;42.636;23.294;2022-11-20T07:06:52;163322.91;;;17.88;70.00
42945;BME280;28584;42.636;23.294;2022-11-20T07:09:18;163242.31;;;17.58;72.91
42945;BME280;28584;42.636;23.294;2022-11-20T07:11:43;163150.94;;;17.24;79.04
42945;BME280;28584;42.636;23.294;2022-11-20T07:14:08;163108.03;;;17.08;84.90
42945;BME280;28584;42.636;23.294;2022-11-20T07:16:34;163059.69;;;16.90;86.34
42945;BME280;28584;42.636;23.294;2022-11-20T07:18:59;163059.69;;;16.90;86.39
42945;BME280;28584;42.636;23.294;2022-11-20T07:21:25;163059.69;;;16.90;86.02
42945;BME280;28584;42.636;23.294;2022-11-20T07:23:50;163035.53;;;16.81;85.97
42945;BME280;28584;42.636;23.294;2022-11-20T07:26:15;163001.97;;;16.68;88.34
42945;BME280;28584;42.636;23.294;2022-11-20T07:28:44;162980.47;;;16.60;89.59
42945;BME280;28584;42.636;23.294;2022-11-20T07:31:09;162964.41;;;16.54;93.27
42945;BME280;28584;42.636;23.294;2022-11-20T07:33:35;162957.72;;;16.52;90.06
42945;BME280;28584;42.636;23.294;2022-11-20T07:36:00;162957.72;;;16.52;90.54
42945;BME280;28584;42.636;23.294;2022-11-20T07:38:26;162944.25;;;16.47;93.11
42945;BME280;28584;42.636;23.294;2022-11-20T07:40:58;162912.03;;;16.34;98.68
42945;BME280;28584;42.636;23.294;2022-11-20T07:43:26;162851.66;;;16.12;100.00
42945;BME280;28584;42.636;23.294;2022-11-20T07:45:55;162832.88;;;16.05;100.00
42945;BME280;28584;42.636;23.294;2022-11-20T07:48:20;162820.78;;;16.00;100.00
42945;BME280;28584;42.636;23.294;2022-11-20T07:50:45;162840.88;;;16.08;100.00
42945;BME280;28584;42.636;23.294;2022-11-20T07:53:11;162807.34;;;15.95;100.00
42945;BME280;28584;42.636;23.294;2022-11-20T07:55:37;162783.25;;;15.86;100.00
42945;BME280;28584;42.636;23.294;2022-11-20T07:58:03;162747.00;;;15.73;100.00
42945;BME280;28584;42.636;23.294;2022-11-20T08:00:28;162747.00;;;15.73;100.00
42945;BME280;28584;42.636;23.294;2022-11-20T08:02:53;162755.06;;;15.76;100.00
42945;BME280;28584;42.636;23.294;2022-11-20T08:05:19;162725.56;;;15.65;100.00
42945;BME280;28584;42.636;23.294;2022-11-20T08:07:44;162684.00;;;15.49;100.00
42945;BME280;28584;42.636;23.294;2022-11-20T08:10:12;162679.97;;;15.48;100.00
42945;BME280;28584;42.636;23.294;2022-11-20T08:12:46;162713.47;;;15.60;100.00
42945;BME280;28584;42.636;23.294;2022-11-20T08:15:30;162749.72;;;15.74;100.00
42945;BME280;28584;42.636;23.294;2022-11-20T08:18:15;162807.34;;;15.95;100.00
42945;BME280;28584;42.636;23.294;2022-11-20T08:20:40;162816.78;;;15.99;100.00
42945;BME280;28584;42.636;23.294;2022-11-20T08:23:07;162810.06;;;15.96;100.00
42945;BME280;28584;42.636;23.294;2022-11-20T08:25:34;162848.94;;;16.11;100.00
42945;BME280;28584;42.636;23.294;2022-11-20T08:28:02;162906.66;;;16.32;100.00
42945;BME280;28584;42.636;23.294;2022-11-20T08:30:28;162973.78;;;16.58;100.00
42945;BME280;28584;42.636;23.294;2022-11-20T08:32:54;163044.91;;;16.84;98.12
42945;BME280;28584;42.636;23.294;2022-11-20T08:35:21;163091.91;;;17.02;100.00
42945;BME280;28584;42.636;23.294;2022-11-20T08:37:47;163094.56;;;17.03;98.50
42945;BME280;28584;42.636;23.294;2022-11-20T08:40:13;163093.25;;;17.02;100.00
42945;BME280;28584;42.636;23.294;2022-11-20T08:42:46;162822.09;;;16.01;100.00
42945;BME280;28584;42.636;23.294;2022-11-20T08:45:11;162657.16;;;15.39;100.00
42945;BME280;28584;42.636;23.294;2022-11-20T08:47:37;162579.38;;;15.10;100.00
42945;BME280;28584;42.636;23.294;2022-11-20T08:50:02;162494.91;;;14.79;100.00
42945;BME280;28584;42.636;23.294;2022-11-20T08:52:28;162405.13;;;14.45;100.00
42945;BME280;28584;42.636;23.294;2022-11-20T08:54:53;162373.00;;;14.33;100.00
42945;BME280;28584;42.636;23.294;2022-11-20T08:57:19;162305.94;;;14.08;100.00
42945;BME280;28584;42.636;23.294;2022-11-20T08:59:44;162326.03;;;14.16;100.00
42945;BME280;28584;42.636;23.294;2022-11-20T09:02:09;162344.84;;;14.23;100.00
42945;BME280;28584;42.636;23.294;2022-11-20T09:04:35;162359.59;;;14.28;100.00
42945;BME280;28584;42.636;23.294;2022-11-20T09:07:00;162338.13;;;14.20;100.00
42945;BME280;28584;42.636;23.294;2022-11-20T09:09:26;162260.38;;;13.91;100.00
42945;BME280;28584;42.636;23.294;2022-11-20T09:11:51;162208.16;;;13.71;100.00
42945;BME280;28584;42.636;23.294;2022-11-20T09:14:16;162117.09;;;13.37;100.00
42945;BME280;28584;42.636;23.294;2022-11-20T09:16:42;162024.75;;;13.03;100.00
42945;BME280;28584;42.636;23.294;2022-11-20T09:19:07;161976.53;;;12.85;100.00
42945;BME280;28584;42.636;23.294;2022-11-20T09:21:32;161932.34;;;12.68;100.00
42945;BME280;28584;42.636;23.294;2022-11-20T09:23:58;151186.25;;;12.66;100.00
42945;BME280;28584;42.636;23.294;2022-11-20T09:26:23;157774.31;;;12.85;100.00
42945;BME280;28584;42.636;23.294;2022-11-20T09:28:49;152269.56;;;13.07;100.00
42945;BME280;28584;42.636;23.294;2022-11-20T09:31:22;142936.34;;;13.13;100.00
42945;BME280;28584;42.636;23.294;2022-11-20T09:33:48;117046.50;;;13.21;100.00
42945;BME280;28584;42.636;23.294;2022-11-20T09:36:13;125442.16;;;13.45;100.00
42945;BME280;28584;42.636;23.294;2022-11-20T09:38:39;132866.88;;;13.69;100.00
42945;BME280;28584;42.636;23.294;2022-11-20T09:41:06;125992.50;;;13.68;100.00
42945;BME280;28584;42.636;23.294;2022-11-20T09:46:25;144007.41;;;13.89;100.00
42945;BME280;28584;42.636;23.294;2022-11-20T09:49:32;144310.03;;;14.02;100.00
42945;BME280;28584;42.636;23.294;2022-11-20T09:54:54;162240.34;;;13.83;100.00
42945;BME280;28584;42.636;23.294;2022-11-20T09:57:23;162287.19;;;14.01;100.00
42945;BME280;28584;42.636;23.294;2022-11-20T09:59:55;162351.53;;;14.25;100.00
42945;BME280;28584;42.636;23.294;2022-11-20T10:02:43;162485.56;;;14.75;100.00
42945;BME280;28584;42.636;23.294;2022-11-20T10:05:18;162547.19;;;14.98;100.00
42945;BME280;28584;42.636;23.294;2022-11-20T10:07:52;162584.72;;;15.12;100.00
42945;BME280;28584;42.636;23.294;2022-11-20T10:10:34;162619.56;;;15.25;100.00
42945;BME280;28584;42.636;23.294;2022-11-20T10:15:42;162700.09;;;15.55;100.00
42945;BME280;28584;42.636;23.294;2022-11-20T10:18:43;162688.00;;;15.51;100.00
42945;BME280;28584;42.636;23.294;2022-11-20T10:24:23;162688.00;;;15.51;100.00
42945;BME280;28584;42.636;23.294;2022-11-20T10:29:43;162716.19;;;15.61;100.00
42945;BME280;28584;42.636;23.294;2022-11-20T10:32:17;162737.63;;;15.69;100.00
42945;BME280;28584;42.636;23.294;2022-11-20T10:34:54;162756.41;;;15.76;100.00
42945;BME280;28584;42.636;23.294;2022-11-20T10:37:24;162704.13;;;15.57;100.00
42945;BME280;28584;42.636;23.294;2022-11-20T10:40:05;162474.78;;;14.71;100.00
42945;BME280;28584;42.636;23.294;2022-11-20T10:42:51;162311.31;;;14.10;100.00
42945;BME280;28584;42.636;23.294;2022-11-20T10:47:50;128245.59;;;13.96;100.00
42945;BME280;28584;42.636;23.294;2022-11-20T10:50:19;114307.00;;;13.91;100.00
42945;BME280;28584;42.636;23.294;2022-11-20T10:58:38;89272.78;;;14.35;100.00
42945;BME280;28584;42.636;23.294;2022-11-20T11:01:17;89625.22;;;14.42;100.00
42945;BME280;28584;42.636;23.294;2022-11-20T11:03:44;87581.06;;;14.22;100.00
42945;BME280;28584;42.636;23.294;2022-11-20T11:06:25;83840.16;;;14.20;100.00
42945;BME280;28584;42.636;23.294;2022-11-20T11:08:56;78229.28;;;13.62;100.00
42945;BME280;28584;42.636;23.294;2022-11-20T11:11:27;75460.63;;;13.42;100.00
42945;BME280;28584;42.636;23.294;2022-11-20T11:14:04;87330.81;;;12.50;100.00
42945;BME280;28584;42.636;23.294;2022-11-20T11:16:30;101959.63;;;12.07;100.00
42945;BME280;28584;42.636;23.294;2022-11-20T11:19:12;102268.81;;;11.89;100.00
42945;BME280;28584;42.636;23.294;2022-11-20T11:21:38;103454.22;;;11.73;100.00
42945;BME280;28584;42.636;23.294;2022-11-20T11:24:19;122665.66;;;11.49;100.00
42945;BME280;28584;42.636;23.294;2022-11-20T11:27:12;113485.13;;;11.34;100.00
42945;BME280;28584;42.636;23.294;2022-11-20T11:29:38;109323.09;;;11.18;100.00
42945;BME280;28584;42.636;23.294;2022-11-20T11:32:11;105757.63;;;11.11;100.00
42945;BME280;28584;42.636;23.294;2022-11-20T11:34:37;111990.59;;;11.05;100.00
42945;BME280;28584;42.636;23.294;2022-11-20T11:37:03;113635.91;;;10.93;100.00
42945;BME280;28584;42.636;23.294;2022-11-20T11:39:31;114792.72;;;10.92;100.00
42945;BME280;28584;42.636;23.294;2022-11-20T11:41:58;113034.28;;;10.96;100.00
42945;BME280;28584;42.636;23.294;2022-11-20T11:44:31;114846.91;;;10.94;100.00
42945;BME280;28584;42.636;23.294;2022-11-20T11:47:37;120745.78;;;11.07;100.00
42945;BME280;28584;42.636;23.294;2022-11-20T11:52:42;114805.84;;;10.97;100.00
42945;BME280;28584;42.636;23.294;2022-11-20T11:55:15;119117.94;;;11.01;100.00
42945;BME280;28584;42.636;23.294;2022-11-20T11:57:56;121690.19;;;11.06;100.00
42945;BME280;28584;42.636;23.294;2022-11-20T12:00:24;117425.91;;;11.03;100.00
42945;BME280;28584;42.636;23.294;2022-11-20T12:03:09;126098.03;;;11.25;100.00
42945;BME280;28584;42.636;23.294;2022-11-20T12:05:43;124716.41;;;11.13;100.00
42945;BME280;28584;42.636;23.294;2022-11-20T12:11:24;128337.09;;;11.08;100.00
42945;BME280;28584;42.636;23.294;2022-11-20T12:16:45;138780.19;;;10.99;100.00
42945;BME280;28584;42.636;23.294;2022-11-20T12:19:13;126596.88;;;10.89;100.00
42945;BME280;28584;42.636;23.294;2022-11-20T12:21:48;127592.88;;;10.90;100.00
42945;BME280;28584;42.636;23.294;2022-11-20T12:35:57;117064.84;;;10.75;100.00
42945;BME280;28584;42.636;23.294;2022-11-20T12:38:29;120736.66;;;10.83;100.00
42945;BME280;28584;42.636;23.294;2022-11-20T12:41:20;121426.13;;;10.85;100.00
42945;BME280;28584;42.636;23.294;2022-11-20T12:55:42;161807.97;;;12.22;100.00
42945;BME280;28584;42.636;23.294;2022-11-20T13:03:49;162091.69;;;13.28;100.00
42945;BME280;28584;42.636;23.294;2022-11-20T13:06:19;162134.53;;;13.44;100.00
42945;BME280;28584;42.636;23.294;2022-11-20T13:08:55;162228.28;;;13.79;100.00
42945;BME280;28584;42.636;23.294;2022-11-20T13:14:24;161611.34;;;11.48;100.00
42945;BME280;28584;42.636;23.294;2022-11-20T13:17:11;145915.22;;;11.41;100.00
42945;BME280;28584;42.636;23.294;2022-11-20T13:19:39;119226.19;;;11.46;100.00
42945;BME280;28584;42.636;23.294;2022-11-20T13:22:04;105471.31;;;11.51;100.00
42945;BME280;28584;42.636;23.294;2022-11-20T13:24:31;98786.28;;;11.58;100.00
42945;BME280;28584;42.636;23.294;2022-11-20T13:29:34;99138.06;;;11.52;100.00
42945;BME280;28584;42.636;23.294;2022-11-20T13:32:17;104055.00;;;11.50;100.00
42945;BME280;28584;42.636;23.294;2022-11-20T13:34:55;108688.13;;;11.57;100.00
42945;BME280;28584;42.636;23.294;2022-11-20T13:37:34;114567.63;;;11.54;100.00
42945;BME280;28584;42.636;23.294;2022-11-20T13:42:37;112819.75;;;11.72;100.00
42945;BME280;28584;42.636;23.294;2022-11-20T13:45:10;112667.53;;;11.72;100.00
42945;BME280;28584;42.636;23.294;2022-11-20T13:47:37;109213.53;;;11.83;100.00
42945;BME280;28584;42.636;23.294;2022-11-20T13:50:04;104035.44;;;11.76;100.00
42945;BME280;28584;42.636;23.294;2022-11-20T13:55:36;99277.81;;;11.65;100.00
42945;BME280;28584;42.636;23.294;2022-11-20T13:58:27;93886.22;;;11.75;100.00
42945;BME280;28584;42.636;23.294;2022-11-20T14:01:08;92876.91;;;11.84;100.00